sensor_id;sensor_type;location;lat;lon;timestamp;P1;durP1;ratioP1;P2;durP2;ratioP2
76935;SDS011;65881;52.438;16.744;2023-07-29T00:00:47;9.38;;;7.90;;
76935;SDS011;65881;52.438;16.744;2023-07-29T00:03:12;9.23;;;7.65;;
76935;SDS011;65881;52.438;16.744;2023-07-29T00:05:38;9.30;;;7.90;;
76935;SDS011;65881;52.438;16.744;2023-07-29T00:08:05;9.88;;;7.35;;
76935;SDS011;65881;52.438;16.744;2023-07-29T00:10:31;8.93;;;7.32;;
76935;SDS011;65881;52.438;16.744;2023-07-29T00:12:57;9.00;;;7.03;;
76935;SDS011;65881;52.438;16.744;2023-07-29T00:15:23;11.13;;;7.93;;
76935;SDS011;65881;52.438;16.744;2023-07-29T00:17:49;9.23;;;7.90;;
76935;SDS011;65881;52.438;16.744;2023-07-29T00:20:15;10.55;;;8.30;;
76935;SDS011;65881;52.438;16.744;2023-07-29T00:22:41;8.73;;;7.65;;
76935;SDS011;65881;52.438;16.744;2023-07-29T00:25:07;8.93;;;8.02;;
76935;SDS011;65881;52.438;16.744;2023-07-29T00:27:33;14.10;;;9.57;;
76935;SDS011;65881;52.438;16.744;2023-07-29T00:29:58;8.85;;;7.28;;
76935;SDS011;65881;52.438;16.744;2023-07-29T00:32:24;9.20;;;8.20;;
76935;SDS011;65881;52.438;16.744;2023-07-29T00:34:50;10.95;;;9.23;;
76935;SDS011;65881;52.438;16.744;2023-07-29T00:37:16;9.45;;;8.55;;
76935;SDS011;65881;52.438;16.744;2023-07-29T00:39:41;9.90;;;8.90;;
76935;SDS011;65881;52.438;16.744;2023-07-29T00:42:08;10.05;;;8.85;;
76935;SDS011;65881;52.438;16.744;2023-07-29T00:44:34;9.27;;;8.38;;
76935;SDS011;65881;52.438;16.744;2023-07-29T00:47:00;12.10;;;8.30;;
76935;SDS011;65881;52.438;16.744;2023-07-29T00:49:28;13.02;;;8.02;;
76935;SDS011;65881;52.438;16.744;2023-07-29T00:51:54;10.73;;;8.00;;
76935;SDS011;65881;52.438;16.744;2023-07-29T00:54:20;17.05;;;8.70;;
76935;SDS011;65881;52.438;16.744;2023-07-29T00:56:45;12.57;;;8.27;;
76935;SDS011;65881;52.438;16.744;2023-07-29T00:59:11;10.70;;;8.60;;
76935;SDS011;65881;52.438;16.744;2023-07-29T01:01:38;9.73;;;8.73;;
76935;SDS011;65881;52.438;16.744;2023-07-29T01:04:04;8.38;;;7.53;;
76935;SDS011;65881;52.438;16.744;2023-07-29T01:17:30;9.07;;;7.72;;
76935;SDS011;65881;52.438;16.744;2023-07-29T01:20:16;10.90;;;6.70;;
76935;SDS011;65881;52.438;16.744;2023-07-29T01:22:45;8.20;;;6.15;;
76935;SDS011;65881;52.438;16.744;2023-07-29T01:25:12;8.73;;;6.47;;
76935;SDS011;65881;52.438;16.744;2023-07-29T01:27:38;8.68;;;7.03;;
76935;SDS011;65881;52.438;16.744;2023-07-29T01:30:04;9.25;;;8.32;;
76935;SDS011;65881;52.438;16.744;2023-07-29T01:32:48;8.20;;;6.63;;
76935;SDS011;65881;52.438;16.744;2023-07-29T01:35:28;6.38;;;5.63;;
76935;SDS011;65881;52.438;16.744;2023-07-29T01:38:11;7.88;;;5.63;;
76935;SDS011;65881;52.438;16.744;2023-07-29T01:40:41;6.55;;;5.60;;
76935;SDS011;65881;52.438;16.744;2023-07-29T01:43:08;7.28;;;5.43;;
76935;SDS011;65881;52.438;16.744;2023-07-29T01:45:35;7.93;;;5.28;;
76935;SDS011;65881;52.438;16.744;2023-07-29T01:48:04;6.85;;;6.15;;
76935;SDS011;65881;52.438;16.744;2023-07-29T01:50:30;7.50;;;6.72;;
76935;SDS011;65881;52.438;16.744;2023-07-29T01:52:57;8.57;;;6.93;;
76935;SDS011;65881;52.438;16.744;2023-07-29T01:55:23;6.53;;;5.90;;
76935;SDS011;65881;52.438;16.744;2023-07-29T01:57:49;8.85;;;5.82;;
76935;SDS011;65881;52.438;16.744;2023-07-29T02:00:16;6.25;;;5.57;;
76935;SDS011;65881;52.438;16.744;2023-07-29T02:02:42;6.82;;;5.43;;
76935;SDS011;65881;52.438;16.744;2023-07-29T02:05:08;6.30;;;5.70;;
76935;SDS011;65881;52.438;16.744;2023-07-29T02:07:34;6.55;;;5.85;;
76935;SDS011;65881;52.438;16.744;2023-07-29T02:09:59;6.15;;;5.38;;
76935;SDS011;65881;52.438;16.744;2023-07-29T02:12:25;20.20;;;7.90;;
76935;SDS011;65881;52.438;16.744;2023-07-29T02:14:50;8.18;;;5.97;;
76935;SDS011;65881;52.438;16.744;2023-07-29T02:17:16;6.93;;;5.93;;
76935;SDS011;65881;52.438;16.744;2023-07-29T02:19:42;7.32;;;5.72;;
76935;SDS011;65881;52.438;16.744;2023-07-29T02:22:07;5.50;;;4.95;;
76935;SDS011;65881;52.438;16.744;2023-07-29T02:24:33;6.65;;;5.65;;
76935;SDS011;65881;52.438;16.744;2023-07-29T02:26:59;6.75;;;5.72;;
76935;SDS011;65881;52.438;16.744;2023-07-29T02:29:24;7.43;;;5.25;;
76935;SDS011;65881;52.438;16.744;2023-07-29T02:31:50;7.07;;;5.50;;
76935;SDS011;65881;52.438;16.744;2023-07-29T02:34:16;6.10;;;5.15;;
76935;SDS011;65881;52.438;16.744;2023-07-29T02:36:41;10.90;;;5.45;;
76935;SDS011;65881;52.438;16.744;2023-07-29T02:39:07;5.68;;;4.68;;
76935;SDS011;65881;52.438;16.744;2023-07-29T02:41:33;7.80;;;5.75;;
76935;SDS011;65881;52.438;16.744;2023-07-29T02:43:58;9.88;;;6.60;;
76935;SDS011;65881;52.438;16.744;2023-07-29T02:46:24;11.35;;;6.40;;
76935;SDS011;65881;52.438;16.744;2023-07-29T02:48:50;7.00;;;5.75;;
76935;SDS011;65881;52.438;16.744;2023-07-29T02:51:16;10.20;;;6.40;;
76935;SDS011;65881;52.438;16.744;2023-07-29T02:53:41;20.20;;;7.40;;
76935;SDS011;65881;52.438;16.744;2023-07-29T02:56:08;22.00;;;8.18;;
76935;SDS011;65881;52.438;16.744;2023-07-29T02:58:35;13.70;;;7.05;;
76935;SDS011;65881;52.438;16.744;2023-07-29T03:01:03;10.40;;;7.53;;
76935;SDS011;65881;52.438;16.744;2023-07-29T03:03:35;11.52;;;7.50;;
76935;SDS011;65881;52.438;16.744;2023-07-29T03:06:05;7.60;;;6.93;;
76935;SDS011;65881;52.438;16.744;2023-07-29T03:08:32;7.88;;;7.07;;
76935;SDS011;65881;52.438;16.744;2023-07-29T03:10:58;7.78;;;7.03;;
76935;SDS011;65881;52.438;16.744;2023-07-29T03:13:29;10.13;;;6.97;;
76935;SDS011;65881;52.438;16.744;2023-07-29T03:16:03;7.40;;;6.60;;
76935;SDS011;65881;52.438;16.744;2023-07-29T03:18:36;8.18;;;7.00;;
76935;SDS011;65881;52.438;16.744;2023-07-29T03:21:02;8.73;;;7.43;;
76935;SDS011;65881;52.438;16.744;2023-07-29T03:23:29;7.47;;;6.75;;
76935;SDS011;65881;52.438;16.744;2023-07-29T03:25:56;7.15;;;6.45;;
76935;SDS011;65881;52.438;16.744;2023-07-29T03:28:27;7.93;;;6.72;;
76935;SDS011;65881;52.438;16.744;2023-07-29T03:30:57;7.03;;;6.15;;
76935;SDS011;65881;52.438;16.744;2023-07-29T03:33:24;9.38;;;8.20;;
76935;SDS011;65881;52.438;16.744;2023-07-29T03:35:50;9.90;;;7.90;;
76935;SDS011;65881;52.438;16.744;2023-07-29T03:38:16;9.00;;;8.02;;
76935;SDS011;65881;52.438;16.744;2023-07-29T03:40:42;11.82;;;8.60;;
76935;SDS011;65881;52.438;16.744;2023-07-29T03:43:11;8.80;;;7.85;;
76935;SDS011;65881;52.438;16.744;2023-07-29T03:45:37;11.65;;;7.68;;
76935;SDS011;65881;52.438;16.744;2023-07-29T03:48:06;9.13;;;7.97;;
76935;SDS011;65881;52.438;16.744;2023-07-29T03:50:33;8.10;;;6.60;;
76935;SDS011;65881;52.438;16.744;2023-07-29T03:53:05;8.77;;;7.88;;
76935;SDS011;65881;52.438;16.744;2023-07-29T03:55:31;8.05;;;7.35;;
76935;SDS011;65881;52.438;16.744;2023-07-29T03:57:57;7.88;;;7.18;;
76935;SDS011;65881;52.438;16.744;2023-07-29T04:00:23;10.05;;;9.07;;
76935;SDS011;65881;52.438;16.744;2023-07-29T04:02:49;8.75;;;7.85;;
76935;SDS011;65881;52.438;16.744;2023-07-29T04:05:15;8.40;;;7.55;;
76935;SDS011;65881;52.438;16.744;2023-07-29T04:07:48;8.77;;;7.97;;
76935;SDS011;65881;52.438;16.744;2023-07-29T04:10:13;9.05;;;7.45;;
76935;SDS011;65881;52.438;16.744;2023-07-29T04:12:39;9.65;;;8.25;;
76935;SDS011;65881;52.438;16.744;2023-07-29T04:15:05;8.43;;;7.45;;
76935;SDS011;65881;52.438;16.744;2023-07-29T04:17:31;7.82;;;7.05;;
76935;SDS011;65881;52.438;16.744;2023-07-29T04:19:57;9.65;;;8.27;;
76935;SDS011;65881;52.438;16.744;2023-07-29T04:22:23;10.70;;;7.97;;
76935;SDS011;65881;52.438;16.744;2023-07-29T04:24:48;8.55;;;7.50;;
76935;SDS011;65881;52.438;16.744;2023-07-29T04:27:15;8.63;;;7.72;;
76935;SDS011;65881;52.438;16.744;2023-07-29T04:29:40;9.40;;;8.00;;
76935;SDS011;65881;52.438;16.744;2023-07-29T04:32:06;8.98;;;8.15;;
76935;SDS011;65881;52.438;16.744;2023-07-29T04:34:45;12.25;;;8.23;;
76935;SDS011;65881;52.438;16.744;2023-07-29T04:37:11;9.02;;;7.65;;
76935;SDS011;65881;52.438;16.744;2023-07-29T04:39:37;19.15;;;8.60;;
76935;SDS011;65881;52.438;16.744;2023-07-29T04:42:03;8.50;;;7.43;;
76935;SDS011;65881;52.438;16.744;2023-07-29T04:44:29;13.15;;;9.77;;
76935;SDS011;65881;52.438;16.744;2023-07-29T04:46:54;16.90;;;9.63;;
76935;SDS011;65881;52.438;16.744;2023-07-29T04:49:20;13.68;;;11.05;;
76935;SDS011;65881;52.438;16.744;2023-07-29T04:51:49;12.60;;;10.88;;
76935;SDS011;65881;52.438;16.744;2023-07-29T04:54:35;22.05;;;12.40;;
76935;SDS011;65881;52.438;16.744;2023-07-29T04:57:00;15.95;;;10.38;;
76935;SDS011;65881;52.438;16.744;2023-07-29T04:59:26;30.13;;;12.63;;
76935;SDS011;65881;52.438;16.744;2023-07-29T05:01:52;20.23;;;11.07;;
76935;SDS011;65881;52.438;16.744;2023-07-29T05:04:17;24.95;;;11.20;;
76935;SDS011;65881;52.438;16.744;2023-07-29T05:06:44;23.05;;;11.63;;
76935;SDS011;65881;52.438;16.744;2023-07-29T05:09:13;34.40;;;12.23;;
76935;SDS011;65881;52.438;16.744;2023-07-29T05:11:40;29.98;;;11.60;;
76935;SDS011;65881;52.438;16.744;2023-07-29T05:14:06;37.72;;;11.05;;
76935;SDS011;65881;52.438;16.744;2023-07-29T05:16:33;37.75;;;12.73;;
76935;SDS011;65881;52.438;16.744;2023-07-29T05:18:59;25.73;;;12.80;;
76935;SDS011;65881;52.438;16.744;2023-07-29T05:21:25;29.58;;;12.65;;
76935;SDS011;65881;52.438;16.744;2023-07-29T05:23:57;23.45;;;11.57;;
76935;SDS011;65881;52.438;16.744;2023-07-29T05:26:23;31.67;;;12.93;;
76935;SDS011;65881;52.438;16.744;2023-07-29T05:28:48;24.73;;;12.18;;
76935;SDS011;65881;52.438;16.744;2023-07-29T05:31:14;22.73;;;10.77;;
76935;SDS011;65881;52.438;16.744;2023-07-29T05:33:40;26.17;;;11.38;;
76935;SDS011;65881;52.438;16.744;2023-07-29T05:36:05;14.82;;;9.95;;
76935;SDS011;65881;52.438;16.744;2023-07-29T05:38:31;19.75;;;11.02;;
76935;SDS011;65881;52.438;16.744;2023-07-29T05:40:57;30.50;;;11.30;;
76935;SDS011;65881;52.438;16.744;2023-07-29T05:43:25;14.65;;;10.25;;
76935;SDS011;65881;52.438;16.744;2023-07-29T05:45:59;19.40;;;10.25;;
76935;SDS011;65881;52.438;16.744;2023-07-29T05:48:24;11.82;;;9.60;;
76935;SDS011;65881;52.438;16.744;2023-07-29T05:50:50;16.88;;;11.57;;
76935;SDS011;65881;52.438;16.744;2023-07-29T05:53:24;13.25;;;10.20;;
76935;SDS011;65881;52.438;16.744;2023-07-29T05:55:49;17.55;;;11.73;;
76935;SDS011;65881;52.438;16.744;2023-07-29T05:58:15;21.08;;;11.13;;
76935;SDS011;65881;52.438;16.744;2023-07-29T06:00:41;18.80;;;11.77;;
76935;SDS011;65881;52.438;16.744;2023-07-29T06:03:07;25.20;;;11.77;;
76935;SDS011;65881;52.438;16.744;2023-07-29T06:05:32;22.00;;;12.20;;
76935;SDS011;65881;52.438;16.744;2023-07-29T06:07:58;26.10;;;12.65;;
76935;SDS011;65881;52.438;16.744;2023-07-29T06:10:24;18.88;;;13.65;;
76935;SDS011;65881;52.438;16.744;2023-07-29T06:12:49;24.23;;;14.05;;
76935;SDS011;65881;52.438;16.744;2023-07-29T06:15:15;25.45;;;14.98;;
76935;SDS011;65881;52.438;16.744;2023-07-29T06:17:41;23.50;;;14.25;;
76935;SDS011;65881;52.438;16.744;2023-07-29T06:20:06;20.10;;;14.32;;
76935;SDS011;65881;52.438;16.744;2023-07-29T06:22:32;22.45;;;13.95;;
76935;SDS011;65881;52.438;16.744;2023-07-29T06:24:58;21.02;;;14.00;;
76935;SDS011;65881;52.438;16.744;2023-07-29T06:27:24;19.77;;;12.93;;
76935;SDS011;65881;52.438;16.744;2023-07-29T06:29:50;21.02;;;14.77;;
76935;SDS011;65881;52.438;16.744;2023-07-29T06:32:16;17.98;;;13.88;;
76935;SDS011;65881;52.438;16.744;2023-07-29T06:34:41;19.27;;;14.45;;
76935;SDS011;65881;52.438;16.744;2023-07-29T06:37:07;17.83;;;14.00;;
76935;SDS011;65881;52.438;16.744;2023-07-29T06:39:33;16.77;;;12.88;;
76935;SDS011;65881;52.438;16.744;2023-07-29T06:41:58;23.23;;;15.65;;
76935;SDS011;65881;52.438;16.744;2023-07-29T06:44:24;16.55;;;12.80;;
76935;SDS011;65881;52.438;16.744;2023-07-29T06:46:50;18.58;;;14.07;;
76935;SDS011;65881;52.438;16.744;2023-07-29T06:49:15;23.42;;;15.48;;
76935;SDS011;65881;52.438;16.744;2023-07-29T06:51:41;17.75;;;13.57;;
76935;SDS011;65881;52.438;16.744;2023-07-29T06:54:07;20.83;;;14.60;;
76935;SDS011;65881;52.438;16.744;2023-07-29T06:56:32;17.65;;;13.55;;
76935;SDS011;65881;52.438;16.744;2023-07-29T06:58:58;17.15;;;13.55;;
76935;SDS011;65881;52.438;16.744;2023-07-29T07:01:23;15.85;;;13.50;;
76935;SDS011;65881;52.438;16.744;2023-07-29T07:03:49;18.35;;;14.20;;
76935;SDS011;65881;52.438;16.744;2023-07-29T07:06:15;16.88;;;13.45;;
76935;SDS011;65881;52.438;16.744;2023-07-29T07:08:40;16.35;;;13.23;;
76935;SDS011;65881;52.438;16.744;2023-07-29T07:11:06;17.73;;;13.43;;
76935;SDS011;65881;52.438;16.744;2023-07-29T07:13:32;16.15;;;13.27;;
76935;SDS011;65881;52.438;16.744;2023-07-29T07:15:58;17.58;;;13.25;;
76935;SDS011;65881;52.438;16.744;2023-07-29T07:18:24;16.23;;;13.15;;
76935;SDS011;65881;52.438;16.744;2023-07-29T07:20:49;14.90;;;12.82;;
76935;SDS011;65881;52.438;16.744;2023-07-29T07:23:15;14.80;;;13.00;;
76935;SDS011;65881;52.438;16.744;2023-07-29T07:25:42;16.60;;;13.02;;
76935;SDS011;65881;52.438;16.744;2023-07-29T07:28:08;16.60;;;13.10;;
76935;SDS011;65881;52.438;16.744;2023-07-29T07:30:34;15.52;;;13.18;;
76935;SDS011;65881;52.438;16.744;2023-07-29T07:33:00;13.55;;;12.15;;
76935;SDS011;65881;52.438;16.744;2023-07-29T07:35:26;12.65;;;11.35;;
76935;SDS011;65881;52.438;16.744;2023-07-29T07:37:52;12.20;;;10.82;;
76935;SDS011;65881;52.438;16.744;2023-07-29T07:40:18;12.05;;;10.75;;
76935;SDS011;65881;52.438;16.744;2023-07-29T07:42:43;12.27;;;10.98;;
76935;SDS011;65881;52.438;16.744;2023-07-29T07:45:09;13.02;;;10.52;;
76935;SDS011;65881;52.438;16.744;2023-07-29T07:47:35;10.52;;;9.30;;
76935;SDS011;65881;52.438;16.744;2023-07-29T07:50:00;11.85;;;8.93;;
76935;SDS011;65881;52.438;16.744;2023-07-29T07:52:32;10.07;;;8.18;;
76935;SDS011;65881;52.438;16.744;2023-07-29T07:55:07;9.48;;;8.05;;
76935;SDS011;65881;52.438;16.744;2023-07-29T07:57:33;12.85;;;8.27;;
76935;SDS011;65881;52.438;16.744;2023-07-29T07:59:59;8.40;;;7.50;;
76935;SDS011;65881;52.438;16.744;2023-07-29T08:02:24;8.23;;;7.10;;
76935;SDS011;65881;52.438;16.744;2023-07-29T08:04:50;7.95;;;6.22;;
76935;SDS011;65881;52.438;16.744;2023-07-29T08:07:16;9.32;;;6.30;;
76935;SDS011;65881;52.438;16.744;2023-07-29T08:09:50;9.68;;;7.35;;
76935;SDS011;65881;52.438;16.744;2023-07-29T08:12:16;7.90;;;6.60;;
76935;SDS011;65881;52.438;16.744;2023-07-29T08:14:45;7.75;;;6.88;;
76935;SDS011;65881;52.438;16.744;2023-07-29T08:17:10;7.50;;;5.53;;
76935;SDS011;65881;52.438;16.744;2023-07-29T08:19:54;6.43;;;5.75;;
76935;SDS011;65881;52.438;16.744;2023-07-29T08:22:25;6.65;;;5.97;;
76935;SDS011;65881;52.438;16.744;2023-07-29T08:24:54;7.07;;;6.38;;
76935;SDS011;65881;52.438;16.744;2023-07-29T08:27:20;8.18;;;7.38;;
76935;SDS011;65881;52.438;16.744;2023-07-29T08:30:15;7.35;;;6.43;;
76935;SDS011;65881;52.438;16.744;2023-07-29T08:32:42;9.35;;;6.22;;
76935;SDS011;65881;52.438;16.744;2023-07-29T08:35:09;8.48;;;6.22;;
76935;SDS011;65881;52.438;16.744;2023-07-29T08:37:35;7.97;;;6.75;;
76935;SDS011;65881;52.438;16.744;2023-07-29T08:40:01;7.53;;;6.65;;
76935;SDS011;65881;52.438;16.744;2023-07-29T08:42:28;6.53;;;5.85;;
76935;SDS011;65881;52.438;16.744;2023-07-29T08:44:56;7.40;;;5.95;;
76935;SDS011;65881;52.438;16.744;2023-07-29T08:47:33;7.70;;;6.25;;
76935;SDS011;65881;52.438;16.744;2023-07-29T08:49:59;7.45;;;6.13;;
76935;SDS011;65881;52.438;16.744;2023-07-29T08:52:27;6.07;;;5.38;;
76935;SDS011;65881;52.438;16.744;2023-07-29T08:54:57;5.47;;;4.70;;
76935;SDS011;65881;52.438;16.744;2023-07-29T08:57:23;4.90;;;4.40;;
76935;SDS011;65881;52.438;16.744;2023-07-29T08:59:49;4.50;;;3.80;;
76935;SDS011;65881;52.438;16.744;2023-07-29T09:02:15;4.90;;;4.13;;
76935;SDS011;65881;52.438;16.744;2023-07-29T09:04:41;4.45;;;3.50;;
76935;SDS011;65881;52.438;16.744;2023-07-29T09:07:07;5.50;;;3.92;;
76935;SDS011;65881;52.438;16.744;2023-07-29T09:09:33;8.77;;;4.07;;
76935;SDS011;65881;52.438;16.744;2023-07-29T09:11:59;4.10;;;3.70;;
76935;SDS011;65881;52.438;16.744;2023-07-29T09:14:30;4.13;;;3.42;;
76935;SDS011;65881;52.438;16.744;2023-07-29T09:16:56;4.00;;;3.60;;
76935;SDS011;65881;52.438;16.744;2023-07-29T09:19:25;4.40;;;3.70;;
76935;SDS011;65881;52.438;16.744;2023-07-29T09:22:01;5.30;;;3.58;;
76935;SDS011;65881;52.438;16.744;2023-07-29T09:24:29;4.75;;;4.00;;
76935;SDS011;65881;52.438;16.744;2023-07-29T09:26:58;4.57;;;4.05;;
76935;SDS011;65881;52.438;16.744;2023-07-29T09:29:27;8.10;;;4.35;;
76935;SDS011;65881;52.438;16.744;2023-07-29T09:32:18;10.23;;;5.60;;
76935;SDS011;65881;52.438;16.744;2023-07-29T09:34:45;4.50;;;4.10;;
76935;SDS011;65881;52.438;16.744;2023-07-29T09:37:15;4.78;;;3.88;;
76935;SDS011;65881;52.438;16.744;2023-07-29T09:39:47;5.28;;;4.55;;
76935;SDS011;65881;52.438;16.744;2023-07-29T09:42:21;4.00;;;3.38;;
76935;SDS011;65881;52.438;16.744;2023-07-29T09:44:49;6.85;;;3.90;;
76935;SDS011;65881;52.438;16.744;2023-07-29T09:47:20;4.25;;;3.65;;
76935;SDS011;65881;52.438;16.744;2023-07-29T09:49:55;5.15;;;4.50;;
76935;SDS011;65881;52.438;16.744;2023-07-29T09:52:22;4.25;;;3.72;;
76935;SDS011;65881;52.438;16.744;2023-07-29T09:54:50;4.55;;;4.15;;
76935;SDS011;65881;52.438;16.744;2023-07-29T09:57:16;5.88;;;3.30;;
76935;SDS011;65881;52.438;16.744;2023-07-29T09:59:56;6.30;;;3.60;;
76935;SDS011;65881;52.438;16.744;2023-07-29T10:02:26;4.28;;;3.53;;
76935;SDS011;65881;52.438;16.744;2023-07-29T10:04:53;4.70;;;3.80;;
76935;SDS011;65881;52.438;16.744;2023-07-29T10:07:21;5.00;;;3.50;;
76935;SDS011;65881;52.438;16.744;2023-07-29T10:09:47;4.20;;;3.80;;
76935;SDS011;65881;52.438;16.744;2023-07-29T10:12:16;5.47;;;4.22;;
76935;SDS011;65881;52.438;16.744;2023-07-29T10:14:43;4.57;;;3.47;;
76935;SDS011;65881;52.438;16.744;2023-07-29T10:17:14;5.88;;;4.25;;
76935;SDS011;65881;52.438;16.744;2023-07-29T10:19:42;4.75;;;3.75;;
76935;SDS011;65881;52.438;16.744;2023-07-29T10:22:10;6.10;;;3.63;;
76935;SDS011;65881;52.438;16.744;2023-07-29T10:24:42;4.35;;;3.95;;
76935;SDS011;65881;52.438;16.744;2023-07-29T10:27:09;3.97;;;3.58;;
76935;SDS011;65881;52.438;16.744;2023-07-29T10:29:41;5.03;;;4.05;;
76935;SDS011;65881;52.438;16.744;2023-07-29T10:32:24;4.72;;;3.90;;
76935;SDS011;65881;52.438;16.744;2023-07-29T10:34:54;4.65;;;4.20;;
76935;SDS011;65881;52.438;16.744;2023-07-29T10:37:22;4.32;;;3.92;;
76935;SDS011;65881;52.438;16.744;2023-07-29T10:39:55;4.63;;;3.85;;
76935;SDS011;65881;52.438;16.744;2023-07-29T10:42:21;3.97;;;3.50;;
76935;SDS011;65881;52.438;16.744;2023-07-29T10:44:50;5.90;;;4.00;;
76935;SDS011;65881;52.438;16.744;2023-07-29T10:47:21;4.53;;;4.13;;
76935;SDS011;65881;52.438;16.744;2023-07-29T10:49:56;6.88;;;4.00;;
76935;SDS011;65881;52.438;16.744;2023-07-29T10:52:29;4.28;;;3.88;;
76935;SDS011;65881;52.438;16.744;2023-07-29T10:55:02;10.70;;;3.90;;
76935;SDS011;65881;52.438;16.744;2023-07-29T10:57:35;3.78;;;3.38;;
76935;SDS011;65881;52.438;16.744;2023-07-29T11:00:06;6.78;;;3.60;;
76935;SDS011;65881;52.438;16.744;2023-07-29T11:02:36;4.30;;;3.63;;
76935;SDS011;65881;52.438;16.744;2023-07-29T11:05:06;4.90;;;3.92;;
76935;SDS011;65881;52.438;16.744;2023-07-29T11:07:49;7.03;;;3.70;;
76935;SDS011;65881;52.438;16.744;2023-07-29T11:10:15;5.63;;;3.88;;
76935;SDS011;65881;52.438;16.744;2023-07-29T11:15:17;4.65;;;3.50;;
76935;SDS011;65881;52.438;16.744;2023-07-29T11:18:00;6.32;;;3.42;;
76935;SDS011;65881;52.438;16.744;2023-07-29T11:20:27;3.85;;;3.45;;
76935;SDS011;65881;52.438;16.744;2023-07-29T11:22:54;4.32;;;3.92;;
76935;SDS011;65881;52.438;16.744;2023-07-29T11:25:23;3.88;;;3.50;;
76935;SDS011;65881;52.438;16.744;2023-07-29T11:27:51;11.48;;;3.80;;
76935;SDS011;65881;52.438;16.744;2023-07-29T11:30:18;3.95;;;3.55;;
76935;SDS011;65881;52.438;16.744;2023-07-29T11:32:44;3.85;;;3.42;;
76935;SDS011;65881;52.438;16.744;2023-07-29T11:37:39;4.80;;;3.15;;
76935;SDS011;65881;52.438;16.744;2023-07-29T11:40:06;3.40;;;2.90;;
76935;SDS011;65881;52.438;16.744;2023-07-29T11:42:35;3.45;;;2.42;;
76935;SDS011;65881;52.438;16.744;2023-07-29T11:45:02;3.20;;;2.72;;
76935;SDS011;65881;52.438;16.744;2023-07-29T11:47:30;3.28;;;2.90;;
76935;SDS011;65881;52.438;16.744;2023-07-29T11:50:00;3.13;;;2.75;;
76935;SDS011;65881;52.438;16.744;2023-07-29T11:52:27;2.78;;;2.38;;
76935;SDS011;65881;52.438;16.744;2023-07-29T11:54:53;3.03;;;2.72;;
76935;SDS011;65881;52.438;16.744;2023-07-29T11:57:19;3.97;;;2.90;;
76935;SDS011;65881;52.438;16.744;2023-07-29T11:59:50;3.63;;;2.55;;
76935;SDS011;65881;52.438;16.744;2023-07-29T12:02:16;3.33;;;2.50;;
76935;SDS011;65881;52.438;16.744;2023-07-29T12:04:47;3.28;;;2.80;;
76935;SDS011;65881;52.438;16.744;2023-07-29T12:07:14;4.50;;;2.60;;
76935;SDS011;65881;52.438;16.744;2023-07-29T12:09:47;3.17;;;2.38;;
76935;SDS011;65881;52.438;16.744;2023-07-29T12:12:14;3.67;;;2.92;;
76935;SDS011;65881;52.438;16.744;2023-07-29T12:14:47;3.63;;;2.75;;
76935;SDS011;65881;52.438;16.744;2023-07-29T12:17:15;4.25;;;3.40;;
76935;SDS011;65881;52.438;16.744;2023-07-29T12:19:41;3.25;;;2.78;;
76935;SDS011;65881;52.438;16.744;2023-07-29T12:22:08;3.20;;;2.83;;
76935;SDS011;65881;52.438;16.744;2023-07-29T12:24:39;5.68;;;3.10;;
76935;SDS011;65881;52.438;16.744;2023-07-29T12:27:05;3.60;;;2.70;;
76935;SDS011;65881;52.438;16.744;2023-07-29T12:29:43;4.70;;;3.17;;
76935;SDS011;65881;52.438;16.744;2023-07-29T12:32:09;5.10;;;3.47;;
76935;SDS011;65881;52.438;16.744;2023-07-29T12:34:36;3.92;;;3.08;;
76935;SDS011;65881;52.438;16.744;2023-07-29T12:37:04;4.15;;;3.28;;
76935;SDS011;65881;52.438;16.744;2023-07-29T12:39:31;3.50;;;3.00;;
76935;SDS011;65881;52.438;16.744;2023-07-29T12:44:30;3.85;;;3.08;;
76935;SDS011;65881;52.438;16.744;2023-07-29T12:46:57;3.58;;;2.63;;
76935;SDS011;65881;52.438;16.744;2023-07-29T12:49:23;2.72;;;2.42;;
76935;SDS011;65881;52.438;16.744;2023-07-29T12:51:56;4.43;;;2.38;;
76935;SDS011;65881;52.438;16.744;2023-07-29T12:54:22;3.20;;;2.88;;
76935;SDS011;65881;52.438;16.744;2023-07-29T12:56:48;3.03;;;2.15;;
76935;SDS011;65881;52.438;16.744;2023-07-29T12:59:14;3.30;;;2.75;;
76935;SDS011;65881;52.438;16.744;2023-07-29T13:01:40;2.92;;;2.63;;
76935;SDS011;65881;52.438;16.744;2023-07-29T13:04:06;3.47;;;2.42;;
76935;SDS011;65881;52.438;16.744;2023-07-29T13:06:31;3.75;;;2.47;;
76935;SDS011;65881;52.438;16.744;2023-07-29T13:08:57;3.20;;;2.63;;
76935;SDS011;65881;52.438;16.744;2023-07-29T13:11:23;3.72;;;3.25;;
76935;SDS011;65881;52.438;16.744;2023-07-29T13:13:49;4.00;;;2.50;;
76935;SDS011;65881;52.438;16.744;2023-07-29T13:16:15;3.08;;;2.45;;
76935;SDS011;65881;52.438;16.744;2023-07-29T13:18:41;2.85;;;2.20;;
76935;SDS011;65881;52.438;16.744;2023-07-29T13:21:09;3.13;;;2.53;;
76935;SDS011;65881;52.438;16.744;2023-07-29T13:23:35;2.83;;;2.53;;
76935;SDS011;65881;52.438;16.744;2023-07-29T13:26:01;3.40;;;2.38;;
76935;SDS011;65881;52.438;16.744;2023-07-29T13:28:26;2.58;;;2.05;;
76935;SDS011;65881;52.438;16.744;2023-07-29T13:30:53;2.78;;;2.47;;
76935;SDS011;65881;52.438;16.744;2023-07-29T13:33:19;3.58;;;2.42;;
76935;SDS011;65881;52.438;16.744;2023-07-29T13:35:44;2.65;;;2.42;;
76935;SDS011;65881;52.438;16.744;2023-07-29T13:38:10;3.53;;;2.80;;
76935;SDS011;65881;52.438;16.744;2023-07-29T13:40:36;2.50;;;2.05;;
76935;SDS011;65881;52.438;16.744;2023-07-29T13:43:02;3.40;;;2.60;;
76935;SDS011;65881;52.438;16.744;2023-07-29T13:45:28;3.78;;;2.42;;
76935;SDS011;65881;52.438;16.744;2023-07-29T13:47:54;5.15;;;2.85;;
76935;SDS011;65881;52.438;16.744;2023-07-29T13:50:19;5.68;;;3.15;;
76935;SDS011;65881;52.438;16.744;2023-07-29T13:52:50;10.00;;;3.78;;
76935;SDS011;65881;52.438;16.744;2023-07-29T13:55:18;10.88;;;3.75;;
76935;SDS011;65881;52.438;16.744;2023-07-29T13:57:44;17.40;;;5.18;;
76935;SDS011;65881;52.438;16.744;2023-07-29T14:00:10;13.68;;;3.03;;
76935;SDS011;65881;52.438;16.744;2023-07-29T14:02:35;7.13;;;3.30;;
76935;SDS011;65881;52.438;16.744;2023-07-29T14:05:01;10.30;;;2.53;;
76935;SDS011;65881;52.438;16.744;2023-07-29T14:07:27;11.05;;;2.45;;
76935;SDS011;65881;52.438;16.744;2023-07-29T14:09:53;5.57;;;1.80;;
76935;SDS011;65881;52.438;16.744;2023-07-29T14:12:18;4.72;;;2.22;;
76935;SDS011;65881;52.438;16.744;2023-07-29T14:14:44;3.17;;;2.05;;
76935;SDS011;65881;52.438;16.744;2023-07-29T14:17:09;4.05;;;2.25;;
76935;SDS011;65881;52.438;16.744;2023-07-29T14:19:36;3.45;;;2.10;;
76935;SDS011;65881;52.438;16.744;2023-07-29T14:22:02;5.20;;;2.00;;
76935;SDS011;65881;52.438;16.744;2023-07-29T14:24:28;4.22;;;2.33;;
76935;SDS011;65881;52.438;16.744;2023-07-29T14:26:53;5.15;;;2.95;;
76935;SDS011;65881;52.438;16.744;2023-07-29T14:29:19;3.17;;;2.30;;
76935;SDS011;65881;52.438;16.744;2023-07-29T14:31:45;4.88;;;2.38;;
76935;SDS011;65881;52.438;16.744;2023-07-29T14:34:10;3.83;;;2.40;;
76935;SDS011;65881;52.438;16.744;2023-07-29T14:36:36;3.00;;;2.42;;
76935;SDS011;65881;52.438;16.744;2023-07-29T14:39:02;6.10;;;3.10;;
76935;SDS011;65881;52.438;16.744;2023-07-29T14:41:30;3.72;;;2.17;;
76935;SDS011;65881;52.438;16.744;2023-07-29T14:43:56;2.95;;;2.20;;
76935;SDS011;65881;52.438;16.744;2023-07-29T14:46:21;3.83;;;2.47;;
76935;SDS011;65881;52.438;16.744;2023-07-29T14:48:47;2.95;;;2.47;;